Time;durP1;ratioP1;P1;durP2;ratioP2;P2;SDS_P1;SDS_P2;PMS_P1;PMS_P2;Temp;Humidity;BMP_temperature;BMP_pressure;BME280_temperature;BME280_humidity;BME280_pressure;Samples;Min_cycle;Max_cycle;Signal;HPM_P1;HPM_P2
2023/05/29 00:00:16;;;;;;;15.07;9.10;;;17.10;99.90;;;;;;5076419;28;20021;-82
2023/05/29 00:02:44;;;;;;;14.13;10.13;;;17.10;99.90;;;;;;5074667;28;20031;-81
2023/05/29 00:05:11;;;;;;;14.30;9.60;;;17.10;99.90;;;;;;5075261;28;20056;-80
2023/05/29 00:07:38;;;;;;;15.95;10.02;;;17.00;99.90;;;;;;5074680;28;20039;-81
2023/05/29 00:10:05;;;;;;;14.60;9.10;;;17.10;99.90;;;;;;5075850;28;20032;-81
2023/05/29 00:12:31;;;;;;;15.35;9.77;;;17.10;99.90;;;;;;5074787;28;20025;-81
2023/05/29 00:14:57;;;;;;;14.80;9.80;;;17.10;99.90;;;;;;5075918;28;20051;-80
2023/05/29 00:17:23;;;;;;;19.42;9.48;;;17.10;99.90;;;;;;5074358;28;20037;-83
2023/05/29 00:19:49;;;;;;;13.07;9.30;;;17.10;99.90;;;;;;5074817;28;20033;-82
2023/05/29 00:22:15;;;;;;;14.88;9.48;;;17.00;99.90;;;;;;5074731;28;20115;-81
2023/05/29 00:24:41;;;;;;;12.95;9.45;;;16.90;99.90;;;;;;5074383;28;20024;-81
2023/05/29 00:27:08;;;;;;;13.20;8.90;;;16.90;99.90;;;;;;5074588;28;20040;-80
2023/05/29 00:29:35;;;;;;;15.07;9.48;;;16.90;99.90;;;;;;5074260;28;20031;-80
2023/05/29 00:32:01;;;;;;;17.95;8.57;;;16.80;99.90;;;;;;5074605;28;20024;-81
2023/05/29 00:34:28;;;;;;;11.40;8.60;;;16.80;99.90;;;;;;5075938;28;20028;-81
2023/05/29 00:36:55;;;;;;;11.80;8.07;;;16.80;99.90;;;;;;5073748;28;20127;-81
2023/05/29 00:39:21;;;;;;;14.38;9.00;;;16.80;99.90;;;;;;5074320;28;20032;-82
2023/05/29 00:41:51;;;;;;;13.45;8.93;;;16.60;99.90;;;;;;5073951;28;20035;-80
2023/05/29 00:44:20;;;;;;;12.45;8.27;;;16.60;99.90;;;;;;5073441;28;20029;-80
2023/05/29 00:46:52;;;;;;;19.23;9.43;;;16.60;99.90;;;;;;5075106;28;20426;-81
2023/05/29 00:49:22;;;;;;;12.57;8.48;;;16.60;99.90;;;;;;5073629;28;20410;-81
2023/05/29 00:51:50;;;;;;;17.17;8.95;;;16.70;99.90;;;;;;5074352;28;20032;-80
2023/05/29 00:54:23;;;;;;;11.98;8.05;;;16.60;99.90;;;;;;5073489;28;20025;-80
2023/05/29 00:56:49;;;;;;;16.88;9.38;;;16.50;99.90;;;;;;5073180;28;20064;-82
2023/05/29 00:59:15;;;;;;;15.35;8.95;;;16.60;99.90;;;;;;5074253;28;20029;-81
2023/05/29 01:01:42;;;;;;;11.52;8.35;;;16.60;99.90;;;;;;5072821;28;20031;-82
2023/05/29 01:04:12;;;;;;;11.93;8.05;;;16.50;99.90;;;;;;5073548;28;20119;-80
2023/05/29 01:06:39;;;;;;;13.23;8.77;;;16.50;99.90;;;;;;5073053;28;20074;-81
2023/05/29 01:09:05;;;;;;;13.35;7.88;;;16.50;99.90;;;;;;5074601;28;20088;-81
2023/05/29 01:11:43;;;;;;;18.70;9.02;;;16.40;99.90;;;;;;5072758;28;20036;-81
2023/05/29 01:14:13;;;;;;;14.43;8.85;;;16.40;99.90;;;;;;5053921;28;20494;-81
2023/05/29 01:16:55;;;;;;;16.55;8.90;;;16.40;99.90;;;;;;5073459;28;20036;-83
2023/05/29 01:19:40;;;;;;;15.57;8.57;;;16.40;99.90;;;;;;5054744;28;20036;-80
2023/05/29 01:22:19;;;;;;;11.60;8.48;;;16.40;99.90;;;;;;5073473;28;20035;-81
2023/05/29 01:25:16;;;;;;;17.70;8.82;;;16.40;99.90;;;;;;5073813;28;20031;-81
2023/05/29 01:27:44;;;;;;;12.88;8.93;;;16.30;99.90;;;;;;5073140;28;20038;-80
2023/05/29 01:30:12;;;;;;;15.90;8.60;;;16.20;99.90;;;;;;5073280;28;20037;-81
2023/05/29 01:32:39;;;;;;;15.02;8.88;;;16.30;99.90;;;;;;5074284;28;20032;-81
2023/05/29 01:35:05;;;;;;;14.15;9.13;;;16.10;99.90;;;;;;5074585;28;20036;-81
2023/05/29 01:37:31;;;;;;;13.30;8.38;;;16.10;99.90;;;;;;5071972;28;20078;-81
2023/05/29 01:39:57;;;;;;;14.38;8.85;;;16.10;99.90;;;;;;5072262;28;20033;-81
2023/05/29 01:42:23;;;;;;;15.25;8.93;;;16.10;99.90;;;;;;5072466;28;20102;-81
2023/05/29 01:44:49;;;;;;;15.18;8.30;;;16.10;99.90;;;;;;5074175;28;20029;-83
2023/05/29 01:47:16;;;;;;;15.77;8.98;;;16.10;99.90;;;;;;5073826;28;20364;-80
2023/05/29 01:49:43;;;;;;;18.85;8.90;;;16.10;99.90;;;;;;5073956;28;20450;-80
2023/05/29 01:52:10;;;;;;;13.73;9.45;;;16.10;99.90;;;;;;5073314;28;20024;-81
2023/05/29 01:54:36;;;;;;;12.88;8.48;;;16.00;99.90;;;;;;5072870;28;20020;-81
2023/05/29 01:57:02;;;;;;;13.95;8.13;;;16.00;99.90;;;;;;5071738;28;20123;-82
2023/05/29 01:59:29;;;;;;;14.02;8.82;;;16.00;99.90;;;;;;5073086;28;20446;-81
2023/05/29 02:01:55;;;;;;;14.60;8.25;;;16.00;99.90;;;;;;5073404;28;20111;-82
2023/05/29 02:04:21;;;;;;;13.20;9.23;;;16.00;99.90;;;;;;5072497;28;20119;-82
2023/05/29 02:06:47;;;;;;;13.45;8.80;;;15.90;99.90;;;;;;5073676;28;20035;-81
2023/05/29 02:09:13;;;;;;;15.23;8.68;;;15.90;99.90;;;;;;5073693;28;20020;-80
2023/05/29 02:11:44;;;;;;;11.45;8.52;;;15.90;99.90;;;;;;5071908;28;20482;-82
2023/05/29 02:14:10;;;;;;;20.30;8.93;;;15.90;99.90;;;;;;5072907;28;20155;-81
2023/05/29 02:16:35;;;;;;;13.65;8.48;;;15.90;99.90;;;;;;5071533;28;20123;-81
2023/05/29 02:19:02;;;;;;;16.50;8.90;;;15.80;99.90;;;;;;5071951;28;20079;-81
2023/05/29 02:21:28;;;;;;;14.70;8.70;;;15.80;99.90;;;;;;5072850;28;20479;-81
2023/05/29 02:23:53;;;;;;;12.98;8.55;;;15.80;99.90;;;;;;5073656;28;20052;-81
2023/05/29 02:26:19;;;;;;;23.25;10.23;;;15.80;99.90;;;;;;5073261;28;20032;-82
2023/05/29 02:28:45;;;;;;;16.90;9.38;;;15.80;99.90;;;;;;5071629;28;20024;-80
2023/05/29 02:31:11;;;;;;;16.48;9.18;;;15.80;99.90;;;;;;5071984;28;20037;-82
2023/05/29 02:33:36;;;;;;;14.38;8.27;;;15.70;99.90;;;;;;5071937;28;20048;-82
2023/05/29 02:36:02;;;;;;;13.45;9.23;;;15.70;99.90;;;;;;5072627;28;20031;-82
2023/05/29 02:38:29;;;;;;;15.38;8.57;;;15.70;99.90;;;;;;5071757;28;20042;-80
2023/05/29 02:40:54;;;;;;;16.92;8.38;;;15.70;99.90;;;;;;5071839;28;20041;-83
2023/05/29 02:43:22;;;;;;;16.23;9.07;;;15.70;99.90;;;;;;5071612;28;20036;-82
2023/05/29 02:45:47;;;;;;;16.70;9.60;;;15.70;99.90;;;;;;5071798;28;20077;-82
2023/05/29 02:48:13;;;;;;;21.73;8.90;;;15.70;99.90;;;;;;5073133;28;20028;-82
2023/05/29 02:50:39;;;;;;;15.63;8.90;;;15.70;99.90;;;;;;5072281;28;20028;-82
2023/05/29 02:53:05;;;;;;;17.92;9.13;;;15.70;99.90;;;;;;5071913;28;20079;-82
2023/05/29 02:55:32;;;;;;;17.10;9.15;;;15.70;99.90;;;;;;5072963;28;20421;-80
2023/05/29 02:57:59;;;;;;;16.15;8.65;;;15.80;99.90;;;;;;5070664;28;20078;-82
2023/05/29 03:00:25;;;;;;;12.88;9.20;;;15.80;99.90;;;;;;5071747;28;20087;-81
2023/05/29 03:02:52;;;;;;;16.52;10.10;;;15.80;99.90;;;;;;5071501;28;20048;-82
2023/05/29 03:05:17;;;;;;;17.70;10.00;;;15.80;99.90;;;;;;5071950;28;20107;-81
2023/05/29 03:07:44;;;;;;;20.05;9.90;;;15.80;99.90;;;;;;5075963;28;20056;-82
2023/05/29 03:10:10;;;;;;;17.63;9.63;;;15.90;99.90;;;;;;5075675;28;20024;-82
2023/05/29 03:12:36;;;;;;;12.73;8.95;;;15.90;99.90;;;;;;5075122;28;20029;-82
2023/05/29 03:15:01;;;;;;;15.88;10.45;;;15.90;99.90;;;;;;5075453;28;20044;-81
2023/05/29 03:17:27;;;;;;;15.85;9.88;;;15.90;99.90;;;;;;5075549;28;21547;-81
2023/05/29 03:19:53;;;;;;;15.32;9.10;;;15.90;99.90;;;;;;5076773;28;20081;-80
2023/05/29 03:22:19;;;;;;;13.32;9.55;;;15.90;99.90;;;;;;5075298;28;20029;-83
2023/05/29 03:24:45;;;;;;;16.83;9.15;;;15.90;99.90;;;;;;5074843;28;20039;-82
2023/05/29 03:27:10;;;;;;;14.88;8.85;;;15.90;99.90;;;;;;5075467;28;20497;-81
2023/05/29 03:29:36;;;;;;;16.25;9.20;;;15.90;99.90;;;;;;5076053;28;20393;-82
2023/05/29 03:32:02;;;;;;;14.02;9.55;;;15.80;99.90;;;;;;5076779;28;20036;-82
2023/05/29 03:34:28;;;;;;;17.50;9.50;;;15.70;99.90;;;;;;5075254;28;20029;-82
2023/05/29 03:36:54;;;;;;;17.25;9.88;;;15.70;99.90;;;;;;5076692;28;20459;-84
2023/05/29 03:39:20;;;;;;;12.18;9.23;;;15.70;99.90;;;;;;5075068;28;20379;-84
2023/05/29 03:41:45;;;;;;;19.88;10.88;;;15.70;99.90;;;;;;5075479;28;20032;-82
2023/05/29 03:44:11;;;;;;;20.60;11.43;;;15.70;99.90;;;;;;5076389;28;20024;-83
2023/05/29 03:46:37;;;;;;;16.30;10.50;;;15.70;99.90;;;;;;5075645;28;20043;-82
2023/05/29 03:49:03;;;;;;;18.42;9.90;;;15.70;99.90;;;;;;5074843;28;20094;-83
2023/05/29 03:51:28;;;;;;;20.02;10.15;;;15.80;99.90;;;;;;5074768;28;20020;-82
2023/05/29 03:53:54;;;;;;;12.60;9.02;;;15.80;99.90;;;;;;5074241;28;20039;-84
2023/05/29 03:56:21;;;;;;;23.13;10.13;;;15.90;99.90;;;;;;5075935;28;20199;-82
2023/05/29 03:58:47;;;;;;;17.17;10.00;;;15.80;99.90;;;;;;5075840;28;20027;-82
2023/05/29 04:01:12;;;;;;;14.05;9.40;;;15.90;99.90;;;;;;5074110;28;20025;-83
2023/05/29 04:03:39;;;;;;;19.88;10.20;;;15.90;99.90;;;;;;5075795;28;20028;-83
2023/05/29 04:06:05;;;;;;;21.27;9.75;;;15.90;99.90;;;;;;5074259;28;20024;-84
2023/05/29 04:08:31;;;;;;;15.25;9.57;;;15.90;99.90;;;;;;5074947;28;20419;-84
2023/05/29 04:10:56;;;;;;;14.95;9.48;;;15.90;99.90;;;;;;5074484;28;20124;-84
2023/05/29 04:13:22;;;;;;;19.42;10.00;;;15.90;99.90;;;;;;5074555;28;20056;-82
2023/05/29 04:15:48;;;;;;;16.75;9.85;;;16.00;99.90;;;;;;5073613;28;20071;-82
2023/05/29 04:18:14;;;;;;;16.20;9.45;;;16.00;99.90;;;;;;5075014;28;20379;-83
2023/05/29 04:20:40;;;;;;;19.70;10.40;;;16.00;99.90;;;;;;5074190;28;20028;-84
2023/05/29 04:23:06;;;;;;;20.13;11.40;;;16.10;99.90;;;;;;5075448;28;20528;-82
2023/05/29 04:25:32;;;;;;;19.20;10.10;;;16.00;99.90;;;;;;5075253;28;20054;-84
2023/05/29 04:28:00;;;;;;;15.82;9.63;;;16.00;99.90;;;;;;5073718;28;20066;-83
2023/05/29 04:30:26;;;;;;;15.77;9.45;;;16.10;99.90;;;;;;5075122;28;20421;-81
2023/05/29 04:32:52;;;;;;;12.50;8.65;;;16.10;99.90;;;;;;5075123;28;20066;-83
2023/05/29 04:35:17;;;;;;;15.20;9.20;;;16.10;99.90;;;;;;5073342;28;20078;-84
2023/05/29 04:37:44;;;;;;;14.90;9.00;;;16.10;99.90;;;;;;5073348;28;20430;-82
2023/05/29 04:40:10;;;;;;;13.60;9.60;;;16.10;99.90;;;;;;5073990;28;20025;-83
2023/05/29 04:42:36;;;;;;;14.63;9.95;;;16.10;99.90;;;;;;5072931;28;20463;-82
2023/05/29 04:45:06;;;;;;;16.02;9.63;;;16.10;99.90;;;;;;5075027;28;20104;-82
2023/05/29 04:47:36;;;;;;;17.17;8.90;;;16.20;99.90;;;;;;5073850;28;20028;-82
2023/05/29 04:50:02;;;;;;;14.70;9.25;;;16.30;99.90;;;;;;5073528;28;20065;-84
2023/05/29 04:52:28;;;;;;;19.55;10.20;;;16.30;99.90;;;;;;5073781;28;20078;-84
2023/05/29 04:54:54;;;;;;;24.38;9.35;;;16.40;99.90;;;;;;5072831;28;20071;-82
2023/05/29 04:57:20;;;;;;;14.50;9.48;;;16.50;99.90;;;;;;5073571;28;20142;-82
2023/05/29 04:59:46;;;;;;;17.20;10.60;;;16.50;99.90;;;;;;5075014;28;20088;-82
2023/05/29 05:02:12;;;;;;;17.88;10.93;;;16.50;99.90;;;;;;5074761;28;20111;-83
2023/05/29 05:04:37;;;;;;;20.15;8.48;;;16.40;99.90;;;;;;5066254;28;20020;-84
2023/05/29 05:07:05;;;;;;;16.48;8.60;;;16.50;99.90;;;;;;5074744;28;20375;-82
2023/05/29 05:09:31;;;;;;;18.10;9.20;;;16.50;99.90;;;;;;5073881;28;20110;-84
2023/05/29 05:11:57;;;;;;;12.13;8.77;;;16.60;99.90;;;;;;5073308;28;20031;-84
2023/05/29 05:14:23;;;;;;;13.38;8.27;;;16.70;99.90;;;;;;5074051;28;20402;-83
2023/05/29 05:16:49;;;;;;;13.88;7.88;;;16.70;99.90;;;;;;5073747;28;20085;-82
2023/05/29 05:19:15;;;;;;;12.05;8.07;;;16.80;99.90;;;;;;5072540;28;20032;-82
2023/05/29 05:21:41;;;;;;;12.68;7.30;;;16.80;99.90;;;;;;5072891;28;20037;-84
2023/05/29 05:24:07;;;;;;;14.15;8.35;;;16.70;99.90;;;;;;5072533;28;20032;-83
2023/05/29 05:26:32;;;;;;;12.23;7.57;;;16.70;99.90;;;;;;5074270;28;20055;-82
2023/05/29 05:28:58;;;;;;;11.90;8.23;;;16.70;99.90;;;;;;5074135;28;20024;-82
2023/05/29 05:31:25;;;;;;;12.13;7.15;;;16.80;99.90;;;;;;5073540;28;20055;-82
2023/05/29 05:33:51;;;;;;;10.85;7.13;;;16.90;99.90;;;;;;5072864;28;20259;-83
2023/05/29 05:36:17;;;;;;;10.88;7.47;;;16.90;99.90;;;;;;5073894;28;20033;-82
2023/05/29 05:38:42;;;;;;;14.30;6.93;;;16.90;99.90;;;;;;5072330;28;20024;-83
2023/05/29 05:41:08;;;;;;;10.68;6.90;;;16.90;99.90;;;;;;5072700;28;20044;-81
2023/05/29 05:43:34;;;;;;;14.40;7.60;;;16.90;99.90;;;;;;5066184;28;20035;-83
2023/05/29 05:45:59;;;;;;;13.68;7.00;;;17.00;99.90;;;;;;5073218;28;20021;-82
2023/05/29 05:48:25;;;;;;;13.68;6.78;;;17.00;99.90;;;;;;5074045;28;20047;-83
2023/05/29 05:50:51;;;;;;;13.45;8.05;;;17.00;99.90;;;;;;5073695;28;20040;-83
2023/05/29 05:53:17;;;;;;;13.48;8.15;;;17.00;99.90;;;;;;5072484;28;20115;-82
2023/05/29 05:55:43;;;;;;;12.30;8.27;;;17.10;99.90;;;;;;5072380;28;20025;-83
2023/05/29 05:58:09;;;;;;;12.45;8.15;;;17.10;99.90;;;;;;5070558;28;20037;-82
2023/05/29 06:00:35;;;;;;;13.30;8.05;;;17.10;99.90;;;;;;5073319;28;20032;-82
2023/05/29 06:03:03;;;;;;;11.27;7.72;;;17.10;99.90;;;;;;5073539;28;20032;-83
2023/05/29 06:05:29;;;;;;;12.27;7.38;;;17.10;99.90;;;;;;5071771;28;20033;-81
2023/05/29 06:07:56;;;;;;;11.73;7.95;;;17.10;99.90;;;;;;5072619;28;20031;-82
2023/05/29 06:10:21;;;;;;;11.55;7.63;;;17.10;99.90;;;;;;5071883;28;20035;-83
2023/05/29 06:12:47;;;;;;;14.65;8.32;;;17.10;99.90;;;;;;5071669;28;20020;-82
2023/05/29 06:15:13;;;;;;;16.20;8.55;;;17.10;99.90;;;;;;5071402;28;20053;-84
2023/05/29 06:17:39;;;;;;;13.50;8.65;;;17.20;99.90;;;;;;5071567;28;20060;-83
2023/05/29 06:20:10;;;;;;;11.77;7.25;;;17.20;99.90;;;;;;5070461;28;20036;-85
2023/05/29 06:22:37;;;;;;;13.98;8.00;;;17.20;99.90;;;;;;5073115;28;20029;-83
2023/05/29 06:25:03;;;;;;;13.52;7.63;;;17.30;99.90;;;;;;5071433;28;20028;-83
2023/05/29 06:27:29;;;;;;;11.52;7.18;;;;;;;;;;5072210;28;20066;-83
2023/05/29 06:29:55;;;;;;;15.20;7.95;;;17.30;99.90;;;;;;5073825;28;20062;-83
2023/05/29 06:32:22;;;;;;;11.52;6.82;;;17.40;99.90;;;;;;5073865;28;20028;-83
2023/05/29 06:34:47;;;;;;;12.70;7.53;;;17.40;99.90;;;;;;5073216;28;20078;-83
2023/05/29 06:37:13;;;;;;;13.63;7.65;;;17.40;99.90;;;;;;5073091;28;20032;-85
2023/05/29 06:39:41;;;;;;;12.45;7.75;;;17.50;99.90;;;;;;5072510;28;20104;-83
2023/05/29 06:42:08;;;;;;;8.70;7.13;;;17.60;99.90;;;;;;5071504;28;20028;-84
2023/05/29 06:44:34;;;;;;;11.73;7.20;;;17.60;99.90;;;;;;5072855;28;20031;-84
2023/05/29 06:47:00;;;;;;;13.05;8.43;;;17.70;99.90;;;;;;5071793;28;20124;-84
2023/05/29 06:49:25;;;;;;;11.55;7.50;;;17.70;99.90;;;;;;5072660;28;20062;-85
2023/05/29 06:51:51;;;;;;;12.45;7.65;;;17.80;99.90;;;;;;5070858;28;20032;-83
2023/05/29 06:54:17;;;;;;;12.25;8.45;;;17.80;99.90;;;;;;5071645;28;20029;-85
2023/05/29 06:56:43;;;;;;;11.35;7.15;;;17.90;99.90;;;;;;5070672;28;20043;-83
2023/05/29 06:59:09;;;;;;;12.85;7.55;;;18.00;99.90;;;;;;5071906;28;20123;-83
2023/05/29 07:01:35;;;;;;;11.20;6.72;;;18.00;99.90;;;;;;5071875;28;20032;-83
2023/05/29 07:04:01;;;;;;;11.93;7.68;;;18.20;99.90;;;;;;5072205;28;20031;-80
2023/05/29 07:06:26;;;;;;;14.68;7.85;;;18.20;99.90;;;;;;5072430;28;20024;-81
2023/05/29 07:08:52;;;;;;;12.35;7.63;;;18.30;99.90;;;;;;5070735;28;20123;-81
2023/05/29 07:11:18;;;;;;;12.13;7.65;;;18.30;99.90;;;;;;5071963;28;20033;-81
2023/05/29 07:13:44;;;;;;;15.70;7.57;;;18.40;99.90;;;;;;5072160;28;20048;-82
2023/05/29 07:16:10;;;;;;;13.15;8.18;;;18.40;99.90;;;;;;5071513;28;20492;-81
2023/05/29 07:18:35;;;;;;;15.45;8.68;;;18.40;99.90;;;;;;5073265;28;20585;-80
2023/05/29 07:21:01;;;;;;;16.27;9.52;;;18.40;99.90;;;;;;5072071;28;20024;-80
2023/05/29 07:23:27;;;;;;;10.90;7.65;;;18.40;99.90;;;;;;5071450;28;20039;-79
2023/05/29 07:25:53;;;;;;;11.65;8.52;;;18.50;99.90;;;;;;5071691;28;20028;-79
2023/05/29 07:28:19;;;;;;;12.30;7.93;;;18.50;99.90;;;;;;5071960;28;20075;-79
2023/05/29 07:30:44;;;;;;;14.77;8.65;;;18.60;99.90;;;;;;5071406;28;20031;-80
2023/05/29 07:33:10;;;;;;;13.35;8.15;;;18.60;99.90;;;;;;5073153;28;20374;-79
2023/05/29 07:35:36;;;;;;;14.18;8.57;;;18.70;99.90;;;;;;5071469;28;20386;-79
2023/05/29 07:38:02;;;;;;;15.73;8.75;;;18.70;99.90;;;;;;5071365;28;20032;-80
2023/05/29 07:40:27;;;;;;;13.52;8.52;;;18.80;99.90;;;;;;5070693;28;20033;-79
2023/05/29 07:42:53;;;;;;;14.38;9.50;;;18.90;99.90;;;;;;5073135;28;20039;-78
2023/05/29 07:45:19;;;;;;;13.77;8.77;;;18.90;99.90;;;;;;5072760;28;20031;-79
2023/05/29 07:47:45;;;;;;;15.45;9.50;;;19.00;99.90;;;;;;5073063;28;20036;-79
2023/05/29 07:50:12;;;;;;;17.70;11.18;;;19.10;99.90;;;;;;5071548;28;20438;-79
2023/05/29 07:52:38;;;;;;;15.07;10.80;;;19.10;99.90;;;;;;5074389;28;20028;-81
2023/05/29 08:06:18;;;;;;;15.07;9.85;;;19.20;99.90;;;;;;5107572;27;20387;-76
2023/05/29 08:08:44;;;;;;;15.55;9.35;;;19.70;99.90;;;;;;5090544;28;20028;-81
2023/05/29 08:11:10;;;;;;;13.10;9.23;;;;;;;;;;5091042;28;20478;-80
2023/05/29 08:13:36;;;;;;;18.10;10.45;;;20.00;99.90;;;;;;5089525;28;20033;-79
2023/05/29 08:16:03;;;;;;;15.65;11.25;;;20.10;99.90;;;;;;5090288;28;20112;-81
2023/05/29 08:18:32;;;;;;;25.42;10.68;;;;;;;;;;5089580;28;20028;-82
2023/05/29 08:20:58;;;;;;;19.33;10.80;;;20.40;99.90;;;;;;5090750;28;20415;-81
2023/05/29 08:23:25;;;;;;;16.38;9.70;;;;;;;;;;5090845;28;20497;-81
2023/05/29 08:25:51;;;;;;;15.70;10.43;;;;;;;;;;5089444;28;20051;-80
2023/05/29 08:28:17;;;;;;;15.07;9.40;;;;;;;;;;5090471;28;20429;-79
2023/05/29 08:30:43;;;;;;;14.85;10.30;;;;;;;;;;5090109;28;20034;-78
2023/05/29 08:33:09;;;;;;;18.15;11.07;;;;;;;;;;5090296;28;20379;-79
2023/05/29 08:35:36;;;;;;;16.35;10.23;;;;;;;;;;5090346;28;20460;-78
2023/05/29 08:38:02;;;;;;;16.85;11.15;;;;;;;;;;5090496;28;20019;-79
2023/05/29 08:40:28;;;;;;;14.93;10.88;;;;;;;;;;5090195;28;20030;-78
2023/05/29 08:42:58;;;;;;;16.60;10.15;;;;;;;;;;5090349;28;20024;-80
2023/05/29 08:45:25;;;;;;;17.15;10.48;;;;;;;;;;5089808;28;20214;-81
2023/05/29 08:47:54;;;;;;;17.63;10.20;;;;;;;;;;5090420;28;20024;-80
2023/05/29 08:50:21;;;;;;;14.27;11.13;;;;;;;;;;5090279;28;20024;-81
2023/05/29 08:52:48;;;;;;;19.52;10.15;;;;;;;;;;5087123;28;20024;-81
2023/05/29 08:55:14;;;;;;;17.23;10.88;;;;;;;;;;5090138;28;20028;-80
2023/05/29 08:57:43;;;;;;;17.13;11.77;;;;;;;;;;5086203;28;20052;-80
2023/05/29 09:00:12;;;;;;;12.93;9.80;;;;;;;;;;5078556;28;20051;-79
2023/05/29 09:02:45;;;;;;;14.45;11.45;;;;;;;;;;5084564;28;20082;-76
2023/05/29 09:05:12;;;;;;;14.82;11.57;;;;;;;;;;5088254;28;20488;-79
2023/05/29 09:07:39;;;;;;;16.75;9.30;;;;;;;;;;5075954;28;20028;-79
2023/05/29 09:10:09;;;;;;;12.68;9.32;;;;;;;;;;5075833;28;20028;-79
2023/05/29 09:12:36;;;;;;;11.50;8.70;;;;;;;;;;5075754;28;20021;-79
2023/05/29 09:15:03;;;;;;;12.27;9.18;;;;;;;;;;5073548;28;20039;-77
2023/05/29 09:17:32;;;;;;;14.82;9.70;;;;;;;;;;5075814;28;20062;-76
2023/05/29 09:19:59;;;;;;;10.57;7.93;;;;;;;;;;5075273;28;20031;-80
2023/05/29 09:22:25;;;;;;;12.45;8.63;;;;;;;;;;5075368;28;20082;-78
2023/05/29 09:24:51;;;;;;;12.45;9.80;;;;;;;;;;5076007;28;20111;-77
2023/05/29 09:27:17;;;;;;;10.52;9.02;;;;;;;;;;5075963;28;20360;-77
2023/05/29 09:29:47;;;;;;;12.00;9.35;;;;;;;;;;5075460;28;20021;-79
2023/05/29 09:32:15;;;;;;;13.73;9.15;;;;;;;;;;5075223;28;20099;-78
2023/05/29 09:34:42;;;;;;;11.63;9.40;;;;;;;;;;5073533;28;20036;-77
2023/05/29 09:37:09;;;;;;;12.27;9.73;;;;;;;;;;5075252;28;20044;-77
2023/05/29 09:39:45;;;;;;;13.10;9.63;;;;;;;;;;5075075;28;20032;-78
2023/05/29 09:42:11;;;;;;;13.32;11.32;;;;;;;;;;5076027;28;20070;-76
2023/05/29 09:44:37;;;;;;;14.75;12.30;;;;;;;;;;5075763;28;20468;-77
2023/05/29 09:47:04;;;;;;;13.95;10.32;;;;;;;;;;5075458;28;20038;-76
2023/05/29 09:49:32;;;;;;;17.33;11.88;;;;;;;;;;5075477;28;20035;-77
2023/05/29 09:52:01;;;;;;;17.42;9.82;;;;;;;;;;5066937;28;20056;-79
2023/05/29 09:54:32;;;;;;;16.05;12.68;;;;;;;;;;5075134;28;20037;-77
2023/05/29 09:57:00;;;;;;;19.00;12.70;;;;;;;;;;5075592;28;20027;-77
2023/05/29 09:59:27;;;;;;;14.10;10.25;;;;;;;;;;5074235;28;20250;-78
2023/05/29 10:02:03;;;;;;;15.63;11.48;;;;;;;;;;5074886;28;20028;-79
2023/05/29 10:04:32;;;;;;;14.52;9.88;;;;;;;;;;5075183;28;20040;-77
2023/05/29 10:07:01;;;;;;;15.57;9.90;;;;;;;;;;5075355;28;20380;-76
2023/05/29 10:09:28;;;;;;;14.02;10.45;;;;;;;;;;5074575;28;20103;-77
2023/05/29 10:11:57;;;;;;;12.77;9.10;;;;;;;;;;5075319;28;20017;-77
2023/05/29 10:14:25;;;;;;;16.02;9.00;;;;;;;;;;5053474;28;20037;-76
2023/05/29 10:16:52;;;;;;;13.75;10.07;;;;;;;;;;5072372;28;20027;-77
2023/05/29 10:19:22;;;;;;;16.15;9.88;;;;;;;;;;5073263;28;20036;-78
2023/05/29 10:21:49;;;;;;;10.93;9.40;;;;;;;;;;5073169;28;20033;-77
2023/05/29 10:24:16;;;;;;;12.30;9.52;;;;;;;;;;5074949;28;20104;-78
2023/05/29 10:26:44;;;;;;;17.58;10.45;;;;;;;;;;5075014;28;20081;-77
2023/05/29 10:29:15;;;;;;;10.90;9.63;;;;;;;;;;5069743;28;20025;-77
2023/05/29 10:31:41;;;;;;;;;;;;;;;;;;5056636;28;20013;-77
2023/05/29 10:34:18;;;;;;;10.38;9.32;;;;;;;;;;5074749;28;20317;-76
2023/05/29 10:36:47;;;;;;;10.10;8.63;;;;;;;;;;5074435;28;20108;-79
2023/05/29 10:39:13;;;;;;;10.98;8.48;;;;;;;;;;5074660;28;20098;-77
2023/05/29 10:41:40;;;;;;;10.15;8.82;;;;;;;;;;5074362;28;20032;-78
2023/05/29 10:44:26;;;;;;;9.60;8.60;;;;;;;;;;5074226;28;20119;-79
2023/05/29 10:46:52;;;;;;;11.30;9.25;;;;;;;;;;5074421;28;20035;-76
2023/05/29 10:49:19;;;;;;;12.55;9.15;;;;;;;;;;5074342;28;20506;-77
2023/05/29 10:51:45;;;;;;;9.88;7.93;;;;;;;;;;5074125;28;20024;-77
2023/05/29 10:54:13;;;;;;;9.85;8.50;;;;;;;;;;5072924;28;20081;-78
2023/05/29 10:56:41;;;;;;;9.23;8.20;;;;;;;;;;5074069;28;20476;-78
2023/05/29 10:59:08;;;;;;;9.68;8.68;;;;;;;;;;5074344;28;20020;-77
2023/05/29 11:01:35;;;;;;;9.30;8.40;;;;;;;;;;5074281;28;20031;-80
2023/05/29 11:04:16;;;;;;;13.40;8.18;;;;;;;;;;5073679;28;20028;-77
2023/05/29 11:06:42;;;;;;;13.55;9.70;;;;;;;;;;5074182;28;20033;-78
2023/05/29 11:09:28;;;;;;;9.75;8.43;;;;;;;;;;5072942;28;20032;-78
2023/05/29 11:12:11;;;;;;;9.73;8.10;;;;;;;;;;5073799;28;20035;-77
2023/05/29 11:14:47;;;;;;;9.60;7.88;;;;;;;;;;5073929;28;20511;-78
2023/05/29 11:17:32;;;;;;;9.98;8.95;;;;;;;;;;5074193;28;20472;-77
2023/05/29 11:19:59;;;;;;;9.15;7.80;;;;;;;;;;5074073;28;20032;-77
2023/05/29 11:22:28;;;;;;;9.32;8.32;;;;;;;;;;5074298;28;20032;-80
2023/05/29 11:24:57;;;;;;;9.10;7.85;;;;;;;;;;5072356;28;20049;-76
2023/05/29 11:27:24;;;;;;;8.73;7.82;;;;;;;;;;5072438;28;20029;-78
2023/05/29 11:29:53;;;;;;;8.80;7.65;;;;;;;;;;5072312;28;20375;-78
2023/05/29 11:32:20;;;;;;;9.25;8.00;;;;;;;;;;5073226;28;20036;-80
2023/05/29 11:34:47;;;;;;;8.65;7.57;;;;;;;;;;5073684;28;20467;-79
2023/05/29 11:37:13;;;;;;;10.50;7.93;;;;;;;;;;5073885;28;20128;-76
2023/05/29 11:39:40;;;;;;;8.65;7.70;;;;;;;;;;5073460;28;20073;-78
2023/05/29 11:42:07;;;;;;;9.43;8.13;;;;;;;;;;5072655;28;20119;-78
2023/05/29 11:44:33;;;;;;;9.25;8.07;;;;;;;;;;5073770;28;20031;-78
2023/05/29 11:47:03;;;;;;;8.00;7.13;;;;;;;;;;5072196;28;20021;-78
2023/05/29 11:49:30;;;;;;;10.40;8.25;;;;;;;;;;5072361;28;20379;-77
2023/05/29 11:52:06;;;;;;;8.13;7.30;;;;;;;;;;5072488;28;20085;-80
2023/05/29 11:54:34;;;;;;;14.88;7.80;;;;;;;;;;5073210;28;20025;-79
2023/05/29 11:57:01;;;;;;;9.13;7.93;;;;;;;;;;5068801;28;20150;-79
2023/05/29 11:59:30;;;;;;;7.18;6.47;;;;;;;;;;5066756;28;20029;-78
2023/05/29 12:01:56;;;;;;;8.35;7.25;;;;;;;;;;5072214;28;20476;-79
2023/05/29 12:04:22;;;;;;;8.10;7.30;;;;;;;;;;5073454;28;20102;-80
2023/05/29 12:06:48;;;;;;;8.80;8.00;;;;;;;;;;5072972;28;20028;-80
2023/05/29 12:09:30;;;;;;;13.18;8.30;;;;;;;;;;5073323;28;20422;-79
2023/05/29 12:11:56;;;;;;;;;;;;;;;;;;5073929;28;20047;-79
2023/05/29 12:14:22;;;;;;;10.00;9.00;;;;;;;;;;5071593;28;20383;-78
2023/05/29 12:16:48;;;;;;;11.20;8.18;;;;;;;;;;5072157;28;20024;-79
2023/05/29 12:19:15;;;;;;;9.93;7.78;;;;;;;;;;5072120;28;20471;-78
2023/05/29 12:21:43;;;;;;;10.18;9.02;;;;;;;;;;5072749;28;20029;-79
2023/05/29 12:24:09;;;;;;;11.13;9.85;;;;;;;;;;5072258;28;20368;-78
2023/05/29 12:26:36;;;;;;;10.80;9.68;;;;;;;;;;5072017;28;20109;-78
2023/05/29 12:29:05;;;;;;;14.02;10.00;;;;;;;;;;5073298;28;20025;-78
2023/05/29 12:31:32;;;;;;;11.77;10.63;;;;;;;;;;5073275;28;20043;-79
2023/05/29 12:34:15;;;;;;;12.20;10.30;;;;;;;;;;5072832;28;20035;-78
2023/05/29 12:36:44;;;;;;;11.20;9.60;;;;;;;;;;5072883;28;20050;-78
2023/05/29 12:39:10;;;;;;;13.40;11.20;;;;;;;;;;5073206;28;20024;-79
2023/05/29 12:41:37;;;;;;;13.15;8.85;;;;;;;;;;5073507;28;20045;-78
2023/05/29 12:44:04;;;;;;;11.40;10.20;;;;;;;;;;5076745;28;20032;-77
2023/05/29 12:46:43;;;;;;;9.77;8.82;;;;;;;;;;5075619;28;20025;-79
2023/05/29 12:49:25;;;;;;;10.45;9.35;;;;;;;;;;5075216;28;20040;-78
2023/05/29 12:51:52;;;;;;;10.38;9.45;;;;;;;;;;5075460;28;20050;-78
2023/05/29 12:54:18;;;;;;;9.75;8.85;;;;;;;;;;5076660;28;20041;-79
2023/05/29 12:56:46;;;;;;;12.07;10.40;;;;;;;;;;5075380;28;20032;-78
2023/05/29 12:59:12;;;;;;;11.00;9.90;;;;;;;;;;5075424;28;20048;-78
2023/05/29 13:01:38;;;;;;;12.40;9.20;;;;;;;;;;5075331;28;20024;-78
2023/05/29 13:04:06;;;;;;;12.18;9.65;;;;;;;;;;5075971;28;20024;-79
2023/05/29 13:06:33;;;;;;;13.90;11.00;;;;;;;;;;5076495;28;20039;-78
2023/05/29 13:08:59;;;;;;;15.98;11.20;;;;;;;;;;5071616;28;20484;-78
2023/05/29 13:11:25;;;;;;;14.65;10.73;;;;;;;;;;5057934;28;20039;-78
2023/05/29 13:13:51;;;;;;;10.85;9.70;;;;;;;;;;5075083;28;20437;-79
2023/05/29 13:16:18;;;;;;;11.55;9.45;;;;;;;;;;5076270;28;20078;-78
2023/05/29 13:18:44;;;;;;;12.77;10.63;;;;;;;;;;5074713;28;20027;-79
2023/05/29 13:21:10;;;;;;;12.00;10.85;;;;;;;;;;5074994;28;20020;-77
2023/05/29 13:23:37;;;;;;;10.38;9.40;;;;;;;;;;5076118;28;20029;-78
2023/05/29 13:26:05;;;;;;;15.55;11.30;;;;;;;;;;5074847;28;20033;-77
2023/05/29 13:28:31;;;;;;;12.43;11.00;;;;;;;;;;5076194;28;20055;-77